sensor_id;sensor_type;location;lat;lon;timestamp;pressure;altitude;pressure_sealevel;temperature;humidity
55187;BME280;55457;52.002;5.464;2022-11-28T00:01:46;100710.22;;;21.14;45.44
55187;BME280;55457;52.002;5.464;2022-11-28T00:04:12;100704.78;;;21.14;45.31
55187;BME280;55457;52.002;5.464;2022-11-28T00:06:41;100709.72;;;21.17;45.16
55187;BME280;55457;52.002;5.464;2022-11-28T00:09:09;100704.88;;;21.19;45.01
55187;BME280;55457;52.002;5.464;2022-11-28T00:11:35;100703.81;;;21.20;45.07
55187;BME280;55457;52.002;5.464;2022-11-28T00:14:02;100698.41;;;21.20;45.09
55187;BME280;55457;52.002;5.464;2022-11-28T00:16:28;100701.66;;;21.22;45.05
55187;BME280;55457;52.002;5.464;2022-11-28T00:18:53;100703.28;;;21.23;44.92
55187;BME280;55457;52.002;5.464;2022-11-28T00:21:20;100701.16;;;21.25;44.85
55187;BME280;55457;52.002;5.464;2022-11-28T00:23:46;100701.97;;;21.25;45.02
55187;BME280;55457;52.002;5.464;2022-11-28T00:26:15;100707.97;;;21.27;44.83
55187;BME280;55457;52.002;5.464;2022-11-28T00:28:41;100697.94;;;21.28;44.98
55187;BME280;55457;52.002;5.464;2022-11-28T00:31:14;100689.53;;;21.29;44.75
55187;BME280;55457;52.002;5.464;2022-11-28T00:33:40;100683.91;;;21.31;44.86
55187;BME280;55457;52.002;5.464;2022-11-28T00:36:06;100683.91;;;21.31;44.81
55187;BME280;55457;52.002;5.464;2022-11-28T00:38:32;100690.72;;;21.33;44.69
55187;BME280;55457;52.002;5.464;2022-11-28T00:41:06;100693.16;;;21.35;44.78
55187;BME280;55457;52.002;5.464;2022-11-28T00:43:32;100682.91;;;21.37;44.70
55187;BME280;55457;52.002;5.464;2022-11-28T00:45:58;100684.53;;;21.38;44.84
55187;BME280;55457;52.002;5.464;2022-11-28T00:48:24;100685.63;;;21.37;44.65
55187;BME280;55457;52.002;5.464;2022-11-28T00:50:50;100682.38;;;21.40;44.52
55187;BME280;55457;52.002;5.464;2022-11-28T00:53:15;100669.09;;;21.39;44.61
55187;BME280;55457;52.002;5.464;2022-11-28T00:55:41;100672.38;;;21.41;44.81
55187;BME280;55457;52.002;5.464;2022-11-28T00:58:06;100670.47;;;21.41;44.46
55187;BME280;55457;52.002;5.464;2022-11-28T01:00:32;100674.00;;;21.42;44.65
55187;BME280;55457;52.002;5.464;2022-11-28T01:02:57;100674.81;;;21.42;44.71
55187;BME280;55457;52.002;5.464;2022-11-28T01:05:24;100669.41;;;21.42;44.62
55187;BME280;55457;52.002;5.464;2022-11-28T01:07:49;100671.03;;;21.43;44.70
55187;BME280;55457;52.002;5.464;2022-11-28T01:10:15;100652.06;;;21.43;44.73
55187;BME280;55457;52.002;5.464;2022-11-28T01:12:40;100653.69;;;21.44;44.62
55187;BME280;55457;52.002;5.464;2022-11-28T01:15:08;100643.66;;;21.45;44.67
55187;BME280;55457;52.002;5.464;2022-11-28T01:17:34;100658.03;;;21.45;44.86
55187;BME280;55457;52.002;5.464;2022-11-28T01:20:00;100655.31;;;21.45;44.47
55187;BME280;55457;52.002;5.464;2022-11-28T01:22:25;100646.38;;;21.45;44.45
55187;BME280;55457;52.002;5.464;2022-11-28T01:24:50;100640.13;;;21.44;44.50
55187;BME280;55457;52.002;5.464;2022-11-28T01:27:16;100628.47;;;21.44;44.49
55187;BME280;55457;52.002;5.464;2022-11-28T01:29:41;100630.91;;;21.45;44.57
55187;BME280;55457;52.002;5.464;2022-11-28T01:32:06;100647.19;;;21.45;44.45
55187;BME280;55457;52.002;5.464;2022-11-28T01:34:31;100635.53;;;21.45;44.45
55187;BME280;55457;52.002;5.464;2022-11-28T01:36:57;100634.72;;;21.44;44.42
55187;BME280;55457;52.002;5.464;2022-11-28T01:39:24;100644.47;;;21.45;44.85
55187;BME280;55457;52.002;5.464;2022-11-28T01:41:49;100642.84;;;21.44;44.33
55187;BME280;55457;52.002;5.464;2022-11-28T01:46:40;100646.13;;;21.46;44.37
55187;BME280;55457;52.002;5.464;2022-11-28T01:49:12;100649.66;;;21.47;44.57
55187;BME280;55457;52.002;5.464;2022-11-28T01:51:43;100644.25;;;21.47;44.30
55187;BME280;55457;52.002;5.464;2022-11-28T01:54:11;100640.19;;;21.49;44.64
55187;BME280;55457;52.002;5.464;2022-11-28T01:56:44;100639.09;;;21.50;44.47
55187;BME280;55457;52.002;5.464;2022-11-28T01:59:13;100646.19;;;21.51;44.54
55187;BME280;55457;52.002;5.464;2022-11-28T02:01:39;100648.63;;;21.53;44.33
55187;BME280;55457;52.002;5.464;2022-11-28T02:04:05;100646.75;;;21.53;44.32
55187;BME280;55457;52.002;5.464;2022-11-28T02:06:31;100640.25;;;21.54;44.74
55187;BME280;55457;52.002;5.464;2022-11-28T02:08:56;100640.25;;;21.54;44.68
55187;BME280;55457;52.002;5.464;2022-11-28T02:30:20;100631.88;;;21.61;44.25
55187;BME280;55457;52.002;5.464;2022-11-28T02:33:10;100633.78;;;21.60;44.22
55187;BME280;55457;52.002;5.464;2022-11-28T02:35:41;100622.94;;;21.60;44.21
55187;BME280;55457;52.002;5.464;2022-11-28T02:38:21;100623.75;;;21.61;44.30
55187;BME280;55457;52.002;5.464;2022-11-28T02:41:01;100624.03;;;21.59;44.33
55187;BME280;55457;52.002;5.464;2022-11-28T02:43:39;100631.06;;;21.60;44.55
55187;BME280;55457;52.002;5.464;2022-11-28T02:46:20;100632.75;;;21.61;44.39
55187;BME280;55457;52.002;5.464;2022-11-28T02:48:58;100630.03;;;21.61;44.39
55187;BME280;55457;52.002;5.464;2022-11-28T02:51:51;100635.44;;;21.61;44.34
55187;BME280;55457;52.002;5.464;2022-11-28T02:54:19;100628.38;;;21.60;44.37
55187;BME280;55457;52.002;5.464;2022-11-28T02:56:50;100624.59;;;21.61;44.54
55187;BME280;55457;52.002;5.464;2022-11-28T03:01:56;100626.47;;;21.61;44.41
55187;BME280;55457;52.002;5.464;2022-11-28T03:04:33;100628.38;;;21.60;44.53
55187;BME280;55457;52.002;5.464;2022-11-28T03:15:00;100626.22;;;21.62;44.54
55187;BME280;55457;52.002;5.464;2022-11-28T03:17:47;100628.38;;;21.60;44.53
55187;BME280;55457;52.002;5.464;2022-11-28T03:22:51;100626.22;;;21.62;44.50
55187;BME280;55457;52.002;5.464;2022-11-28T03:28:11;100636.25;;;21.62;44.59
55187;BME280;55457;52.002;5.464;2022-11-28T03:30:54;100624.59;;;21.61;44.48
55187;BME280;55457;52.002;5.464;2022-11-28T03:33:24;100630.56;;;21.63;44.62
55187;BME280;55457;52.002;5.464;2022-11-28T03:35:56;100625.16;;;21.63;44.41
55187;BME280;55457;52.002;5.464;2022-11-28T03:38:30;100624.88;;;21.65;44.71
55187;BME280;55457;52.002;5.464;2022-11-28T03:41:02;100631.13;;;21.66;44.27
55187;BME280;55457;52.002;5.464;2022-11-28T03:43:37;100620.03;;;21.67;44.46
55187;BME280;55457;52.002;5.464;2022-11-28T03:46:07;100630.63;;;21.69;44.56
55187;BME280;55457;52.002;5.464;2022-11-28T03:48:39;100628.19;;;21.67;44.60
55187;BME280;55457;52.002;5.464;2022-11-28T03:51:12;100630.63;;;21.69;44.36
55187;BME280;55457;52.002;5.464;2022-11-28T03:56:45;100631.75;;;21.73;44.57
55187;BME280;55457;52.002;5.464;2022-11-28T03:59:40;100637.19;;;21.73;44.27
55187;BME280;55457;52.002;5.464;2022-11-28T04:02:41;100631.75;;;21.73;44.46
55187;BME280;55457;52.002;5.464;2022-11-28T04:05:18;100638.81;;;21.74;44.80
55187;BME280;55457;52.002;5.464;2022-11-28T04:07:53;100627.97;;;21.74;44.26
55187;BME280;55457;52.002;5.464;2022-11-28T04:10:27;100631.22;;;21.76;44.40
55187;BME280;55457;52.002;5.464;2022-11-28T04:12:58;100630.41;;;21.75;44.43
55187;BME280;55457;52.002;5.464;2022-11-28T04:15:29;100628.50;;;21.76;44.44
55187;BME280;55457;52.002;5.464;2022-11-28T04:20:54;100636.66;;;21.76;44.40
55187;BME280;55457;52.002;5.464;2022-11-28T04:23:23;100634.75;;;21.76;44.66
55187;BME280;55457;52.002;5.464;2022-11-28T04:25:53;100630.97;;;21.77;44.57
55187;BME280;55457;52.002;5.464;2022-11-28T04:28:22;100632.03;;;21.76;44.57
55187;BME280;55457;52.002;5.464;2022-11-28T04:30:50;100640.44;;;21.75;44.45
55187;BME280;55457;52.002;5.464;2022-11-28T04:33:19;100633.69;;;21.77;44.54
55187;BME280;55457;52.002;5.464;2022-11-28T04:35:51;100630.13;;;21.77;44.59
55187;BME280;55457;52.002;5.464;2022-11-28T04:38:18;100627.44;;;21.77;44.40
55187;BME280;55457;52.002;5.464;2022-11-28T04:41:19;100628.81;;;21.79;44.62
55187;BME280;55457;52.002;5.464;2022-11-28T04:43:55;100629.91;;;21.78;44.54
55187;BME280;55457;52.002;5.464;2022-11-28T04:46:29;100627.69;;;21.75;44.63
55187;BME280;55457;52.002;5.464;2022-11-28T04:48:56;100623.91;;;21.76;44.75
55187;BME280;55457;52.002;5.464;2022-11-28T04:51:26;100632.84;;;21.77;44.66
55187;BME280;55457;52.002;5.464;2022-11-28T04:54:03;100632.63;;;21.78;44.77
55187;BME280;55457;52.002;5.464;2022-11-28T04:56:40;100631.78;;;21.78;44.74
55187;BME280;55457;52.002;5.464;2022-11-28T04:59:08;100639.94;;;21.78;44.43
55187;BME280;55457;52.002;5.464;2022-11-28T05:01:37;100639.94;;;21.78;44.55
55187;BME280;55457;52.002;5.464;2022-11-28T05:04:03;100651.59;;;21.78;44.75
55187;BME280;55457;52.002;5.464;2022-11-28T05:06:33;100644.53;;;21.77;44.72
55187;BME280;55457;52.002;5.464;2022-11-28T05:08:59;100650.78;;;21.78;44.64
55187;BME280;55457;52.002;5.464;2022-11-28T05:11:25;100647.00;;;21.79;44.60
55187;BME280;55457;52.002;5.464;2022-11-28T05:13:50;100653.22;;;21.79;44.79
55187;BME280;55457;52.002;5.464;2022-11-28T05:16:16;100650.78;;;21.78;44.72
55187;BME280;55457;52.002;5.464;2022-11-28T05:18:42;100655.41;;;21.77;44.80
55187;BME280;55457;52.002;5.464;2022-11-28T05:21:08;100659.97;;;21.77;44.78
55187;BME280;55457;52.002;5.464;2022-11-28T05:23:43;100654.53;;;21.77;44.93
55187;BME280;55457;52.002;5.464;2022-11-28T05:26:12;100663.53;;;21.77;44.60
55187;BME280;55457;52.002;5.464;2022-11-28T05:28:38;100661.63;;;21.78;44.63
55187;BME280;55457;52.002;5.464;2022-11-28T05:31:04;100665.41;;;21.77;44.81
55187;BME280;55457;52.002;5.464;2022-11-28T05:33:31;100669.78;;;21.78;44.78
55187;BME280;55457;52.002;5.464;2022-11-28T05:36:04;100662.13;;;21.75;44.90
55187;BME280;55457;52.002;5.464;2022-11-28T05:38:31;100668.09;;;21.77;44.74
55187;BME280;55457;52.002;5.464;2022-11-28T05:40:56;100669.19;;;21.76;44.85
55187;BME280;55457;52.002;5.464;2022-11-28T05:43:21;100668.97;;;21.77;44.74
55187;BME280;55457;52.002;5.464;2022-11-28T05:45:47;100668.09;;;21.77;44.80
55187;BME280;55457;52.002;5.464;2022-11-28T05:48:12;100667.28;;;21.76;44.67
55187;BME280;55457;52.002;5.464;2022-11-28T05:50:39;100666.47;;;21.76;44.94
55187;BME280;55457;52.002;5.464;2022-11-28T05:53:04;100669.19;;;21.76;44.95
55187;BME280;55457;52.002;5.464;2022-11-28T05:55:29;100665.66;;;21.75;44.84
55187;BME280;55457;52.002;5.464;2022-11-28T05:57:55;100662.69;;;21.77;45.03
55187;BME280;55457;52.002;5.464;2022-11-28T06:00:20;100661.06;;;21.76;44.68
55187;BME280;55457;52.002;5.464;2022-11-28T06:02:46;100669.19;;;21.76;44.97
55187;BME280;55457;52.002;5.464;2022-11-28T06:05:11;100668.09;;;21.77;44.96
55187;BME280;55457;52.002;5.464;2022-11-28T06:07:36;100670.28;;;21.75;44.88
55187;BME280;55457;52.002;5.464;2022-11-28T06:10:02;100671.09;;;21.75;44.82
55187;BME280;55457;52.002;5.464;2022-11-28T06:12:27;100664.84;;;21.75;44.84
55187;BME280;55457;52.002;5.464;2022-11-28T06:14:53;100668.38;;;21.75;45.09
55187;BME280;55457;52.002;5.464;2022-11-28T06:17:18;100663.22;;;21.74;44.75
55187;BME280;55457;52.002;5.464;2022-11-28T06:19:43;100667.56;;;21.75;45.10
55187;BME280;55457;52.002;5.464;2022-11-28T06:22:09;100667.56;;;21.75;44.96
55187;BME280;55457;52.002;5.464;2022-11-28T06:24:34;100672.97;;;21.75;44.94
55187;BME280;55457;52.002;5.464;2022-11-28T06:26:59;100671.34;;;21.74;44.96
55187;BME280;55457;52.002;5.464;2022-11-28T06:29:25;100677.59;;;21.74;45.07
55187;BME280;55457;52.002;5.464;2022-11-28T06:31:50;100667.56;;;21.75;45.02
55187;BME280;55457;52.002;5.464;2022-11-28T06:34:15;100677.59;;;21.74;44.89
55187;BME280;55457;52.002;5.464;2022-11-28T06:36:42;100665.94;;;21.74;44.75
55187;BME280;55457;52.002;5.464;2022-11-28T06:39:11;100675.16;;;21.73;45.10
55187;BME280;55457;52.002;5.464;2022-11-28T06:41:37;100676.22;;;21.72;44.78
55187;BME280;55457;52.002;5.464;2022-11-28T06:44:02;100681.38;;;21.73;45.22
55187;BME280;55457;52.002;5.464;2022-11-28T06:46:27;100686.81;;;21.73;45.09
55187;BME280;55457;52.002;5.464;2022-11-28T06:48:53;100685.19;;;21.72;45.16
55187;BME280;55457;52.002;5.464;2022-11-28T06:51:19;100681.66;;;21.72;45.22
55187;BME280;55457;52.002;5.464;2022-11-28T06:53:45;100686.00;;;21.73;45.07
55187;BME280;55457;52.002;5.464;2022-11-28T06:56:15;100690.59;;;21.72;45.21
55187;BME280;55457;52.002;5.464;2022-11-28T06:58:42;100696.03;;;21.72;45.01
55187;BME280;55457;52.002;5.464;2022-11-28T07:01:19;100695.22;;;21.72;44.90
55187;BME280;55457;52.002;5.464;2022-11-28T07:03:45;100687.06;;;21.72;44.84
55187;BME280;55457;52.002;5.464;2022-11-28T07:06:12;100697.94;;;21.72;45.16
55187;BME280;55457;52.002;5.464;2022-11-28T07:08:38;100700.63;;;21.72;44.93
55187;BME280;55457;52.002;5.464;2022-11-28T07:11:13;100699.78;;;21.71;45.45
55187;BME280;55457;52.002;5.464;2022-11-28T07:13:39;100693.56;;;21.71;45.19
55187;BME280;55457;52.002;5.464;2022-11-28T07:16:06;100703.59;;;21.70;45.21
55187;BME280;55457;52.002;5.464;2022-11-28T07:18:31;100707.13;;;21.71;45.14
55187;BME280;55457;52.002;5.464;2022-11-28T07:20:57;100707.13;;;21.71;45.38
55187;BME280;55457;52.002;5.464;2022-11-28T07:23:22;100705.47;;;21.70;45.05
55187;BME280;55457;52.002;5.464;2022-11-28T07:25:48;100704.41;;;21.71;44.99
55187;BME280;55457;52.002;5.464;2022-11-28T07:28:13;100711.72;;;21.70;44.88
55187;BME280;55457;52.002;5.464;2022-11-28T07:30:38;100717.97;;;21.71;45.07
55187;BME280;55457;52.002;5.464;2022-11-28T07:33:04;100725.28;;;21.70;44.92
55187;BME280;55457;52.002;5.464;2022-11-28T07:35:32;100713.63;;;21.70;44.90
55187;BME280;55457;52.002;5.464;2022-11-28T07:37:57;100724.47;;;21.70;45.06
55187;BME280;55457;52.002;5.464;2022-11-28T07:40:23;100735.31;;;21.70;45.17
55187;BME280;55457;52.002;5.464;2022-11-28T07:42:48;100732.59;;;21.70;44.99
55187;BME280;55457;52.002;5.464;2022-11-28T07:45:14;100732.88;;;21.68;45.18
55187;BME280;55457;52.002;5.464;2022-11-28T07:47:39;100733.69;;;21.69;44.83
55187;BME280;55457;52.002;5.464;2022-11-28T07:50:05;100739.09;;;21.69;44.79
55187;BME280;55457;52.002;5.464;2022-11-28T07:52:31;100729.91;;;21.70;45.34
55187;BME280;55457;52.002;5.464;2022-11-28T07:54:56;100732.59;;;21.70;45.35
55187;BME280;55457;52.002;5.464;2022-11-28T07:57:21;100732.06;;;21.68;45.06
55187;BME280;55457;52.002;5.464;2022-11-28T07:59:46;100739.94;;;21.69;44.94
55187;BME280;55457;52.002;5.464;2022-11-28T08:02:12;100730.97;;;21.69;45.19
55187;BME280;55457;52.002;5.464;2022-11-28T08:04:38;100737.47;;;21.68;45.19
55187;BME280;55457;52.002;5.464;2022-11-28T08:07:03;100743.72;;;21.68;44.90
55187;BME280;55457;52.002;5.464;2022-11-28T08:09:30;100729.91;;;21.70;45.02
55187;BME280;55457;52.002;5.464;2022-11-28T08:11:55;100729.91;;;21.70;45.11
55187;BME280;55457;52.002;5.464;2022-11-28T08:14:20;100724.47;;;21.70;45.30
55187;BME280;55457;52.002;5.464;2022-11-28T08:16:46;100726.09;;;21.71;45.04
55187;BME280;55457;52.002;5.464;2022-11-28T08:19:11;100735.06;;;21.71;45.04
55187;BME280;55457;52.002;5.464;2022-11-28T08:21:37;100744.03;;;21.72;44.81
55187;BME280;55457;52.002;5.464;2022-11-28T08:24:03;100748.63;;;21.71;45.10
55187;BME280;55457;52.002;5.464;2022-11-28T08:26:30;100750.50;;;21.71;44.96
55187;BME280;55457;52.002;5.464;2022-11-28T08:29:00;100749.47;;;21.72;45.03
55187;BME280;55457;52.002;5.464;2022-11-28T08:31:31;100750.28;;;21.72;44.94
55187;BME280;55457;52.002;5.464;2022-11-28T08:33:58;100757.59;;;21.72;45.15
55187;BME280;55457;52.002;5.464;2022-11-28T08:36:24;100755.94;;;21.71;45.05
55187;BME280;55457;52.002;5.464;2022-11-28T08:38:49;100753.22;;;21.71;45.13
55187;BME280;55457;52.002;5.464;2022-11-28T08:41:17;100756.47;;;21.68;45.83
55187;BME280;55457;52.002;5.464;2022-11-28T08:43:44;100754.25;;;21.65;46.03
55187;BME280;55457;52.002;5.464;2022-11-28T08:46:14;100758.53;;;21.60;46.55
55187;BME280;55457;52.002;5.464;2022-11-28T08:48:40;100765.03;;;21.59;46.09
55187;BME280;55457;52.002;5.464;2022-11-28T08:51:07;100755.25;;;21.58;46.43
55187;BME280;55457;52.002;5.464;2022-11-28T08:53:34;100750.34;;;21.55;46.71
55187;BME280;55457;52.002;5.464;2022-11-28T08:55:59;100757.41;;;21.56;46.50
55187;BME280;55457;52.002;5.464;2022-11-28T08:58:25;100763.41;;;21.58;46.26
55187;BME280;55457;52.002;5.464;2022-11-28T09:00:50;100756.91;;;21.59;46.38
55187;BME280;55457;52.002;5.464;2022-11-28T09:03:17;100761.00;;;21.62;46.15
55187;BME280;55457;52.002;5.464;2022-11-28T09:05:44;100760.47;;;21.65;46.35
55187;BME280;55457;52.002;5.464;2022-11-28T09:08:19;100762.13;;;21.66;46.30
55187;BME280;55457;52.002;5.464;2022-11-28T09:10:45;100762.97;;;21.67;46.28
55187;BME280;55457;52.002;5.464;2022-11-28T09:13:12;100761.31;;;21.66;46.29
55187;BME280;55457;52.002;5.464;2022-11-28T09:15:42;100762.97;;;21.67;46.17
55187;BME280;55457;52.002;5.464;2022-11-28T09:18:08;100753.75;;;21.68;46.36
55187;BME280;55457;52.002;5.464;2022-11-28T09:20:34;100758.09;;;21.69;46.10
55187;BME280;55457;52.002;5.464;2022-11-28T09:22:59;100758.91;;;21.69;46.36
55187;BME280;55457;52.002;5.464;2022-11-28T09:25:25;100762.44;;;21.70;46.33
55187;BME280;55457;52.002;5.464;2022-11-28T09:27:50;100765.97;;;21.70;46.33
55187;BME280;55457;52.002;5.464;2022-11-28T09:30:16;100771.41;;;21.70;46.41
55187;BME280;55457;52.002;5.464;2022-11-28T09:32:42;100773.03;;;21.71;46.46
55187;BME280;55457;52.002;5.464;2022-11-28T09:35:07;100774.91;;;21.71;46.33
55187;BME280;55457;52.002;5.464;2022-11-28T09:37:33;100771.97;;;21.72;46.25
55187;BME280;55457;52.002;5.464;2022-11-28T09:39:58;100772.78;;;21.73;46.31
55187;BME280;55457;52.002;5.464;2022-11-28T09:42:34;100780.13;;;21.72;46.31
55187;BME280;55457;52.002;5.464;2022-11-28T09:45:04;100787.19;;;21.73;46.21
55187;BME280;55457;52.002;5.464;2022-11-28T09:47:33;100786.34;;;21.73;46.17
55187;BME280;55457;52.002;5.464;2022-11-28T09:50:06;100789.06;;;21.73;46.17
55187;BME280;55457;52.002;5.464;2022-11-28T10:03:51;100789.56;;;21.70;46.19
55187;BME280;55457;52.002;5.464;2022-11-28T10:06:47;100794.16;;;21.69;46.29
55187;BME280;55457;52.002;5.464;2022-11-28T10:20:05;100792.88;;;21.72;46.54
55187;BME280;55457;52.002;5.464;2022-11-28T10:23:10;100797.44;;;21.71;46.49
55187;BME280;55457;52.002;5.464;2022-11-28T10:25:55;100791.78;;;21.73;46.45
55187;BME280;55457;52.002;5.464;2022-11-28T10:28:28;100790.97;;;21.72;46.24
55187;BME280;55457;52.002;5.464;2022-11-28T10:31:27;100782.81;;;21.72;46.07
55187;BME280;55457;52.002;5.464;2022-11-28T10:34:16;100783.66;;;21.73;46.40
55187;BME280;55457;52.002;5.464;2022-11-28T10:36:51;100778.22;;;21.73;46.19
55187;BME280;55457;52.002;5.464;2022-11-28T10:39:20;100771.97;;;21.72;46.27
55187;BME280;55457;52.002;5.464;2022-11-28T10:41:56;100777.41;;;21.72;46.19
55187;BME280;55457;52.002;5.464;2022-11-28T11:00:55;100777.28;;;21.62;46.69
55187;BME280;55457;52.002;5.464;2022-11-28T11:03:32;100774.81;;;21.60;46.72
55187;BME280;55457;52.002;5.464;2022-11-28T11:06:00;100778.59;;;21.59;46.89
55187;BME280;55457;52.002;5.464;2022-11-28T11:08:27;100776.97;;;21.58;46.74
55187;BME280;55457;52.002;5.464;2022-11-28T11:11:23;100787.00;;;21.58;46.82
55187;BME280;55457;52.002;5.464;2022-11-28T11:14:07;100787.00;;;21.58;46.78
55187;BME280;55457;52.002;5.464;2022-11-28T11:16:54;100791.59;;;21.57;46.60
55187;BME280;55457;52.002;5.464;2022-11-28T11:19:41;100802.19;;;21.59;46.90
55187;BME280;55457;52.002;5.464;2022-11-28T11:22:17;100797.03;;;21.57;46.31
55187;BME280;55457;52.002;5.464;2022-11-28T11:25:14;100796.19;;;21.57;46.42
55187;BME280;55457;52.002;5.464;2022-11-28T11:27:57;100801.84;;;21.55;46.58
55187;BME280;55457;52.002;5.464;2022-11-28T11:32:55;100793.22;;;21.58;46.12
55187;BME280;55457;52.002;5.464;2022-11-28T11:35:25;100805.72;;;21.59;46.29
55187;BME280;55457;52.002;5.464;2022-11-28T11:37:51;100793.22;;;21.58;46.09
55187;BME280;55457;52.002;5.464;2022-11-28T11:40:27;100799.47;;;21.59;46.44
55187;BME280;55457;52.002;5.464;2022-11-28T11:42:58;100795.94;;;21.58;46.13
55187;BME280;55457;52.002;5.464;2022-11-28T11:45:31;100795.94;;;21.58;46.22
55187;BME280;55457;52.002;5.464;2022-11-28T11:47:57;100798.66;;;21.58;46.20
55187;BME280;55457;52.002;5.464;2022-11-28T11:50:25;100796.19;;;21.57;46.71
55187;BME280;55457;52.002;5.464;2022-11-28T11:53:06;100797.50;;;21.54;46.69
55187;BME280;55457;52.002;5.464;2022-11-28T11:55:51;100808.63;;;21.53;47.07
55187;BME280;55457;52.002;5.464;2022-11-28T11:58:21;100807.22;;;21.50;47.27
55187;BME280;55457;52.002;5.464;2022-11-28T12:00:47;100808.56;;;21.48;47.34
55187;BME280;55457;52.002;5.464;2022-11-28T12:06:05;100799.59;;;21.47;46.77
55187;BME280;55457;52.002;5.464;2022-11-28T12:08:39;100799.09;;;21.50;46.66
55187;BME280;55457;52.002;5.464;2022-11-28T12:11:19;100796.97;;;21.52;46.89
55187;BME280;55457;52.002;5.464;2022-11-28T12:13:46;100808.34;;;21.54;47.21
55187;BME280;55457;52.002;5.464;2022-11-28T12:16:20;100803.53;;;21.56;46.84
55187;BME280;55457;52.002;5.464;2022-11-28T12:21:37;100803.53;;;21.56;47.14
55187;BME280;55457;52.002;5.464;2022-11-28T12:24:10;100802.94;;;21.54;47.17
55187;BME280;55457;52.002;5.464;2022-11-28T12:26:43;100805.09;;;21.52;47.58
55187;BME280;55457;52.002;5.464;2022-11-28T12:29:25;100807.22;;;21.50;47.50
55187;BME280;55457;52.002;5.464;2022-11-28T12:35:20;100792.53;;;21.46;47.70
55187;BME280;55457;52.002;5.464;2022-11-28T12:40:53;100804.44;;;21.45;47.59
55187;BME280;55457;52.002;5.464;2022-11-28T12:51:11;100813.97;;;21.48;47.52
55187;BME280;55457;52.002;5.464;2022-11-28T12:54:06;100810.19;;;21.49;47.50
55187;BME280;55457;52.002;5.464;2022-11-28T13:02:11;100802.38;;;21.52;47.29
55187;BME280;55457;52.002;5.464;2022-11-28T13:04:51;100798.84;;;21.52;47.26
55187;BME280;55457;52.002;5.464;2022-11-28T13:13:03;100804.50;;;21.50;47.34
55187;BME280;55457;52.002;5.464;2022-11-28T13:18:08;100807.22;;;21.50;47.35
55187;BME280;55457;52.002;5.464;2022-11-28T13:20:52;100808.28;;;21.49;47.29
55187;BME280;55457;52.002;5.464;2022-11-28T13:23:28;100811.00;;;21.49;47.51
55187;BME280;55457;52.002;5.464;2022-11-28T13:26:12;100811.00;;;21.49;47.11
55187;BME280;55457;52.002;5.464;2022-11-28T13:31:41;100809.38;;;21.48;47.12
55187;BME280;55457;52.002;5.464;2022-11-28T13:34:15;100812.91;;;21.49;47.01
55187;BME280;55457;52.002;5.464;2022-11-28T13:36:48;100816.44;;;21.49;47.32
55187;BME280;55457;52.002;5.464;2022-11-28T13:42:09;100820.22;;;21.48;47.17
55187;BME280;55457;52.002;5.464;2022-11-28T13:47:35;100831.63;;;21.50;47.16
55187;BME280;55457;52.002;5.464;2022-11-28T13:55:37;100832.13;;;21.47;47.25
55187;BME280;55457;52.002;5.464;2022-11-28T13:58:22;100840.28;;;21.47;47.10
55187;BME280;55457;52.002;5.464;2022-11-28T14:01:08;100841.91;;;21.48;47.29
55187;BME280;55457;52.002;5.464;2022-11-28T14:03:43;100831.56;;;21.45;47.06
55187;BME280;55457;52.002;5.464;2022-11-28T14:06:09;100839.69;;;21.45;47.25
55187;BME280;55457;52.002;5.464;2022-11-28T14:08:41;100842.97;;;21.47;46.87
55187;BME280;55457;52.002;5.464;2022-11-28T14:16:54;100846.50;;;21.48;47.06
55187;BME280;55457;52.002;5.464;2022-11-28T14:27:25;100850.31;;;21.47;47.13
55187;BME280;55457;52.002;5.464;2022-11-28T14:29:53;100856.53;;;21.47;46.91
55187;BME280;55457;52.002;5.464;2022-11-28T14:32:26;100864.94;;;21.46;47.13
55187;BME280;55457;52.002;5.464;2022-11-28T14:34:54;100864.94;;;21.46;46.72
55187;BME280;55457;52.002;5.464;2022-11-28T14:39:52;100863.28;;;21.45;47.04
55187;BME280;55457;52.002;5.464;2022-11-28T14:44:59;100864.34;;;21.44;46.85
55187;BME280;55457;52.002;5.464;2022-11-28T14:52:32;100870.03;;;21.42;47.07
55187;BME280;55457;52.002;5.464;2022-11-28T14:54:59;100861.91;;;21.42;47.09
55187;BME280;55457;52.002;5.464;2022-11-28T14:57:30;100865.69;;;21.41;46.95
55187;BME280;55457;52.002;5.464;2022-11-28T15:02:49;100872.16;;;21.40;46.82
55187;BME280;55457;52.002;5.464;2022-11-28T15:05:43;100881.13;;;21.41;47.01
55187;BME280;55457;52.002;5.464;2022-11-28T15:11:02;100873.81;;;21.41;46.81
55187;BME280;55457;52.002;5.464;2022-11-28T15:16:34;100883.00;;;21.40;47.02
55187;BME280;55457;52.002;5.464;2022-11-28T15:21:46;100892.72;;;21.36;47.59
55187;BME280;55457;52.002;5.464;2022-11-28T15:26:46;100882.69;;;21.36;47.74
55187;BME280;55457;52.002;5.464;2022-11-28T15:29:18;100887.28;;;21.36;47.75
55187;BME280;55457;52.002;5.464;2022-11-28T15:31:46;100894.34;;;21.37;48.05
55187;BME280;55457;52.002;5.464;2022-11-28T15:34:24;100895.44;;;21.36;48.10
55187;BME280;55457;52.002;5.464;2022-11-28T15:36:52;100898.13;;;21.36;48.07
55187;BME280;55457;52.002;5.464;2022-11-28T15:39:43;100900.84;;;21.36;48.08
55187;BME280;55457;52.002;5.464;2022-11-28T15:42:27;100908.97;;;21.36;47.89
55187;BME280;55457;52.002;5.464;2022-11-28T15:45:06;100910.88;;;21.35;47.88
55187;BME280;55457;52.002;5.464;2022-11-28T15:47:32;100913.59;;;21.35;47.77
55187;BME280;55457;52.002;5.464;2022-11-28T15:50:00;100914.41;;;21.36;48.07
55187;BME280;55457;52.002;5.464;2022-11-28T15:52:26;100912.50;;;21.36;47.79
55187;BME280;55457;52.002;5.464;2022-11-28T15:54:52;100914.41;;;21.36;47.81
55187;BME280;55457;52.002;5.464;2022-11-28T15:57:19;100913.59;;;21.35;47.46